Time;durP1;ratioP1;P1;durP2;ratioP2;P2;SDS_P1;SDS_P2;PMS_P1;PMS_P2;Temp;Humidity;BMP_temperature;BMP_pressure;BME280_temperature;BME280_humidity;BME280_pressure;Samples;Min_cycle;Max_cycle;Signal;HPM_P1;HPM_P2
2022/07/24 00:02:42;;;;;;;2.90;1.60;;;;;;;14.40;77.31;101425.88;6096871;28;20021;-64
2022/07/24 00:05:37;;;;;;;3.33;1.50;;;;;;;14.58;78.25;101416.88;6096637;28;20040;-65
2022/07/24 00:08:33;;;;;;;3.80;1.57;;;;;;;14.17;77.78;101428.97;6097397;28;20610;-64
2022/07/24 00:11:28;;;;;;;2.88;1.58;;;;;;;14.11;77.85;101432.25;6096837;28;20275;-65
2022/07/24 00:14:23;;;;;;;3.23;1.60;;;;;;;14.08;79.00;101418.34;6097052;28;20537;-66
2022/07/24 00:17:19;;;;;;;3.03;1.50;;;;;;;13.55;80.20;101426.25;6096808;28;20123;-66
2022/07/24 00:20:14;;;;;;;3.90;1.70;;;;;;;13.56;80.17;101419.97;6096627;28;20271;-65
2022/07/24 00:23:09;;;;;;;2.77;1.73;;;;;;;13.80;81.62;101425.56;6097274;28;20380;-65
2022/07/24 00:26:05;;;;;;;3.97;1.47;;;;;;;13.50;79.91;101417.88;6097332;28;20489;-64
2022/07/24 00:29:00;;;;;;;4.20;1.77;;;;;;;13.77;79.63;101425.88;6096381;28;20111;-64
2022/07/24 00:31:56;;;;;;;2.60;1.40;;;;;;;13.59;79.66;101419.63;6096583;28;20043;-66
2022/07/24 00:34:51;;;;;;;4.97;1.60;;;;;;;13.11;80.87;101423.34;6097353;28;20102;-64
2022/07/24 00:37:46;;;;;;;4.13;1.43;;;;;;;12.85;82.54;101422.28;6097041;28;20268;-66
2022/07/24 00:40:42;;;;;;;3.03;1.60;;;;;;;12.66;82.93;101427.63;6096714;28;20028;-65
2022/07/24 00:44:00;;;;;;;3.83;1.57;;;;;;;12.52;83.48;101430.72;6096550;28;20029;-64
2022/07/24 00:46:55;;;;;;;3.35;1.40;;;;;;;12.82;83.66;101417.22;6096545;28;20028;-65
2022/07/24 00:49:50;;;;;;;3.93;1.60;;;;;;;12.95;83.23;101416.91;6097059;28;20076;-66
2022/07/24 00:52:46;;;;;;;2.67;1.47;;;;;;;12.81;82.35;101422.69;6095985;28;20360;-64
2022/07/24 00:55:42;;;;;;;2.58;1.40;;;;;;;13.06;83.53;101424.75;6096961;28;20549;-64
2022/07/24 00:58:37;;;;;;;5.50;2.25;;;;;;;13.23;81.99;101418.69;6099706;28;20021;-65
2022/07/24 01:01:32;;;;;;;2.75;1.35;;;;;;;13.43;82.48;101422.94;6100601;28;20074;-65
2022/07/24 01:04:28;;;;;;;2.67;1.47;;;;;;;13.24;80.72;101407.03;6095404;28;20033;-65
2022/07/24 01:07:23;;;;;;;5.50;1.80;;;;;;;13.13;81.14;101411.72;6100361;28;20279;-66
2022/07/24 01:10:18;;;;;;;3.93;1.50;;;;;;;13.36;81.76;101418.34;6100706;28;20274;-65
2022/07/24 01:13:14;;;;;;;2.70;1.47;;;;;;;13.06;81.53;101412.28;6101209;28;20029;-64
2022/07/24 01:16:09;;;;;;;4.43;1.53;;;;;;;13.66;82.32;101410.06;6100459;28;20722;-66
2022/07/24 01:19:05;;;;;;;2.30;1.20;;;;;;;13.79;79.38;101407.88;6101142;28;20032;-66
2022/07/24 01:22:00;;;;;;;3.10;1.50;;;;;;;13.86;78.57;101408.97;6100372;28;20024;-66
2022/07/24 01:24:55;;;;;;;3.90;1.93;;;;;;;13.87;78.70;101407.97;6100630;28;20260;-66
2022/07/24 01:27:50;;;;;;;3.50;1.90;;;;;;;13.93;78.44;101410.06;6100878;28;20024;-64
2022/07/24 01:30:46;;;;;;;3.43;1.50;;;;;;;13.69;79.20;101399.13;6100036;28;20376;-66
2022/07/24 01:33:41;;;;;;;4.57;2.10;;;;;;;14.07;80.56;101400.69;6100639;28;20041;-65
2022/07/24 01:36:37;;;;;;;4.03;2.10;;;;;;;14.10;79.44;101387.91;6100908;28;20256;-66
2022/07/24 01:39:33;;;;;;;7.60;2.28;;;;;;;14.17;78.66;101391.63;6100115;28;20021;-66
2022/07/24 01:42:28;;;;;;;4.37;2.03;;;;;;;14.21;78.55;101371.63;6099955;28;20079;-66
2022/07/24 01:45:23;;;;;;;4.17;1.90;;;;;;;14.27;78.20;101403.03;6100345;28;20268;-65
2022/07/24 01:48:19;;;;;;;7.63;2.30;;;;;;;14.30;78.29;101386.72;6100143;28;20399;-65
2022/07/24 01:51:14;;;;;;;4.38;1.80;;;;;;;14.36;78.06;101398.66;6099634;28;20024;-65
2022/07/24 01:54:10;;;;;;;5.82;1.90;;;;;;;14.33;78.82;101406.97;6100302;28;20025;-65
2022/07/24 01:57:05;;;;;;;6.67;1.90;;;;;;;13.98;77.50;101394.44;6100247;28;20037;-64
2022/07/24 02:00:01;;;;;;;3.60;1.70;;;;;;;13.99;78.26;101412.13;6100040;28;20267;-65
2022/07/24 02:02:56;;;;;;;4.60;2.00;;;;;;;13.61;78.72;101401.69;6099227;28;20104;-66
2022/07/24 02:05:52;;;;;;;4.05;1.92;;;;;;;13.71;80.38;101405.13;6099791;28;20060;-66
2022/07/24 02:08:47;;;;;;;3.67;1.70;;;;;;;13.59;80.00;101395.66;6098276;28;20028;-65
2022/07/24 02:11:42;;;;;;;6.70;1.90;;;;;;;13.62;80.19;101406.00;6099362;28;20033;-64
2022/07/24 02:14:38;;;;;;;3.27;1.63;;;;;;;13.62;80.67;101400.69;6100011;28;20099;-66
2022/07/24 02:17:33;;;;;;;3.22;1.60;;;;;;;13.69;80.63;101394.63;6099091;28;20035;-64
2022/07/24 02:20:29;;;;;;;5.30;2.10;;;;;;;13.94;80.50;101408.22;6099385;28;20086;-66
2022/07/24 02:23:24;;;;;;;4.97;1.90;;;;;;;13.85;80.03;101393.97;6098065;28;20286;-65
2022/07/24 02:26:20;;;;;;;4.67;1.80;;;;;;;13.78;80.59;101390.22;6099225;28;20040;-66
2022/07/24 02:29:15;;;;;;;3.28;2.03;;;;;;;13.88;80.26;101403.50;6099243;28;20028;-66
2022/07/24 02:32:11;;;;;;;4.07;1.70;;;;;;;13.51;79.39;101399.06;6098482;28;20060;-64
2022/07/24 02:35:07;;;;;;;3.47;1.80;;;;;;;13.05;80.63;101407.06;6099296;28;20047;-65
2022/07/24 02:38:03;;;;;;;3.88;1.73;;;;;;;12.72;82.20;101392.44;6099056;28;20036;-65
2022/07/24 02:40:59;;;;;;;4.03;1.88;;;;;;;12.83;82.61;101386.94;6098976;28;20036;-66
2022/07/24 02:43:54;;;;;;;4.50;1.80;;;;;;;12.75;82.27;101394.81;6099069;28;20029;-66
2022/07/24 02:46:49;;;;;;;7.00;1.73;;;;;;;12.99;82.66;101392.50;6098864;28;20031;-65
2022/07/24 02:49:45;;;;;;;5.20;2.23;;;;;;;13.35;82.06;101385.53;6099218;28;20016;-66
2022/07/24 02:52:40;;;;;;;3.83;1.80;;;;;;;13.30;80.84;101385.16;6097609;28;20041;-65
2022/07/24 02:55:35;;;;;;;2.80;1.80;;;;;;;12.93;80.16;101393.13;6099146;28;20033;-65
2022/07/24 02:58:31;;;;;;;2.70;1.70;;;;;;;12.44;81.96;101402.16;6098509;28;20044;-66
2022/07/24 03:01:26;;;;;;;2.70;1.63;;;;;;;12.08;82.93;101396.69;6098604;28;20541;-65
2022/07/24 03:04:21;;;;;;;4.27;1.77;;;;;;;12.21;83.39;101403.41;6098328;28;20095;-65
2022/07/24 03:07:16;;;;;;;4.77;1.87;;;;;;;12.24;83.29;101400.47;6097884;28;20108;-65
2022/07/24 03:10:13;;;;;;;3.90;1.93;;;;;;;11.85;84.19;101410.22;6098226;28;20048;-64
2022/07/24 03:13:08;;;;;;;3.85;1.83;;;;;;;11.79;85.85;101412.59;6098381;28;20053;-65
2022/07/24 03:16:04;;;;;;;6.53;2.83;;;;;;;12.26;87.19;101405.63;6098524;28;20031;-64
2022/07/24 03:18:59;;;;;;;5.47;1.90;;;;;;;12.53;85.69;101405.78;6097831;28;20067;-64
2022/07/24 03:21:54;;;;;;;3.77;1.97;;;;;;;12.50;84.98;101412.22;6097726;28;20037;-64
2022/07/24 03:24:50;;;;;;;4.70;2.03;;;;;;;12.89;84.89;101412.16;6097743;28;20040;-65
2022/07/24 03:27:47;;;;;;;3.33;1.83;;;;;;;13.09;83.97;101396.03;6098211;28;20434;-65
2022/07/24 03:30:42;;;;;;;7.40;3.05;;;;;;;13.34;81.07;101407.00;6097489;28;20291;-65
2022/07/24 03:33:38;;;;;;;6.80;2.27;;;;;;;12.94;81.02;101404.56;6097506;28;20487;-65
2022/07/24 03:36:33;;;;;;;9.80;1.93;;;;;;;12.91;81.35;101411.03;6097699;28;20461;-65
2022/07/24 03:39:28;;;;;;;3.72;2.03;;;;;;;12.98;81.85;101417.47;6098234;28;20075;-66
2022/07/24 03:42:24;;;;;;;5.50;1.90;;;;;;;13.05;81.46;101404.41;6096865;28;20056;-64
2022/07/24 03:45:19;;;;;;;4.17;1.90;;;;;;;13.08;80.93;101407.66;6098055;28;20417;-64
2022/07/24 03:48:15;;;;;;;4.70;1.80;;;;;;;12.80;81.71;101413.84;6097575;28;20029;-66
2022/07/24 03:51:10;;;;;;;4.77;1.83;;;;;;;12.65;81.82;101412.63;6097131;28;20031;-65
2022/07/24 03:54:05;;;;;;;5.83;2.47;;;;;;;12.34;83.79;101408.44;6097600;28;20035;-65
2022/07/24 03:57:01;;;;;;;5.60;2.40;;;;;;;12.42;83.49;101408.56;6097396;28;20032;-66
2022/07/24 03:59:56;;;;;;;4.17;2.10;;;;;;;12.66;82.57;101403.69;6097712;28;20271;-66
2022/07/24 04:02:51;;;;;;;6.47;2.33;;;;;;;12.60;82.51;101419.34;6096326;28;20283;-65
2022/07/24 04:05:46;;;;;;;3.80;2.20;;;;;;;12.68;83.22;101407.03;6097453;28;20016;-66
2022/07/24 04:08:42;;;;;;;3.17;1.97;;;;;;;12.50;83.33;101408.75;6097446;28;20067;-65
2022/07/24 04:11:37;;;;;;;5.87;2.30;;;;;;;12.38;84.07;101417.84;6096679;28;20047;-65
2022/07/24 04:14:32;;;;;;;5.63;2.20;;;;;;;12.30;84.20;101407.91;6097456;28;20048;-64
2022/07/24 04:17:28;;;;;;;4.93;2.50;;;;;;;12.12;85.37;101414.06;6097189;28;20596;-65
2022/07/24 04:20:23;;;;;;;4.93;2.47;;;;;;;12.17;85.43;101407.34;6096660;28;20032;-66
2022/07/24 04:23:18;;;;;;;5.53;2.20;;;;;;;12.31;84.79;101419.38;6097289;28;20283;-65
2022/07/24 04:26:14;;;;;;;6.87;2.10;;;;;;;12.39;84.50;101414.22;6097024;28;20029;-65
2022/07/24 04:29:09;;;;;;;6.07;2.40;;;;;;;12.63;83.65;101409.28;6097094;28;20271;-65
2022/07/24 04:32:05;;;;;;;3.50;2.20;;;;;;;13.24;80.96;101417.69;6098144;28;20115;-66
2022/07/24 04:35:00;;;;;;;4.13;2.05;;;;;;;13.61;79.68;101407.03;6101797;28;20025;-64
2022/07/24 04:37:55;;;;;;;4.17;1.77;;;;;;;13.74;77.27;101410.16;6101962;28;20029;-65
2022/07/24 04:40:51;;;;;;;3.87;2.13;;;;;;;13.43;79.11;101411.44;6101305;28;20093;-65
2022/07/24 04:43:46;;;;;;;6.90;2.60;;;;;;;13.39;80.20;101413.59;6100792;28;20523;-65
2022/07/24 04:46:41;;;;;;;3.13;1.80;;;;;;;13.52;79.52;101405.25;6101619;28;20287;-64
2022/07/24 04:49:36;;;;;;;3.67;1.40;;;;;;;14.08;78.06;101403.19;6103142;28;20491;-64
2022/07/24 04:52:32;;;;;;;3.20;1.60;;;;;;;14.41;75.96;101406.19;6100925;28;20594;-66
2022/07/24 04:55:28;;;;;;;3.45;1.65;;;;;;;14.97;73.60;101411.13;6101799;28;20611;-64
2022/07/24 04:58:23;;;;;;;3.78;1.98;;;;;;;14.72;75.36;101408.31;6101683;28;20056;-66
2022/07/24 05:01:19;;;;;;;1.85;1.23;;;;;;;14.92;74.69;101402.75;6120776;28;20107;-65
2022/07/24 05:04:14;;;;;;;4.43;1.60;;;;;;;15.06;74.15;101403.00;6104647;28;20089;-65
2022/07/24 05:07:09;;;;;;;4.05;1.48;;;;;;;14.97;74.65;101395.97;6101217;28;20354;-63
2022/07/24 05:10:05;;;;;;;4.60;1.50;;;;;;;15.11;74.07;101405.22;6100163;28;20063;-65
2022/07/24 05:13:01;;;;;;;5.45;2.35;;;;;;;15.49;73.01;101402.91;6101673;28;20116;-64
2022/07/24 05:15:56;;;;;;;3.77;1.40;;;;;;;15.42;72.96;101409.88;6101310;28;20021;-65
2022/07/24 05:18:52;;;;;;;3.22;1.48;;;;;;;15.43;72.92;101403.56;6115175;28;20347;-63
2022/07/24 05:21:47;;;;;;;2.97;1.63;;;;;;;15.94;70.45;101399.91;6099691;28;20037;-64
2022/07/24 05:24:42;;;;;;;4.72;1.42;;;;;;;16.27;70.13;101402.63;6099946;28;20021;-65
2022/07/24 05:27:38;;;;;;;2.77;1.47;;;;;;;16.17;69.55;101410.00;6101191;28;20025;-64
2022/07/24 05:30:33;;;;;;;5.10;1.20;;;;;;;16.43;69.22;101400.81;6097980;28;20269;-65
2022/07/24 05:33:28;;;;;;;2.03;1.13;;;;;;;16.51;68.28;101411.50;6100957;28;20341;-64
2022/07/24 05:36:24;;;;;;;3.90;1.30;;;;;;;17.05;66.76;101391.22;6101078;28;20026;-65
2022/07/24 05:39:20;;;;;;;2.13;1.40;;;;;;;17.28;65.71;101396.69;6100760;28;20267;-64
2022/07/24 05:42:16;;;;;;;3.90;1.30;;;;;;;17.23;65.49;101399.88;6099904;28;20111;-64
2022/07/24 05:45:11;;;;;;;3.42;1.20;;;;;;;17.17;66.24;101397.06;6100136;28;20384;-65
2022/07/24 05:48:07;;;;;;;4.07;1.20;;;;;;;17.34;65.89;101408.56;6099271;28;20025;-64
2022/07/24 05:51:02;;;;;;;4.50;1.40;;;;;;;18.06;63.08;101410.91;6098932;28;20098;-65
2022/07/24 05:53:58;;;;;;;3.92;0.98;;;;;;;18.62;61.59;101390.88;6098882;28;20735;-65
2022/07/24 05:56:53;;;;;;;2.50;1.23;;;;;;;18.70;61.31;101393.47;6100460;28;20082;-65
2022/07/24 05:59:48;;;;;;;4.63;1.20;;;;;;;18.16;62.13;101405.31;6100071;28;20263;-65
2022/07/24 06:02:47;;;;;;;1.60;0.90;;;;;;;18.86;60.87;101398.69;6099300;28;20090;-65
2022/07/24 06:05:42;;;;;;;3.22;1.17;;;;;;;18.96;59.96;101388.53;6096251;28;20357;-65
2022/07/24 06:08:37;;;;;;;3.17;1.30;;;;;;;18.96;61.29;101390.38;6099413;28;20029;-65
2022/07/24 06:11:33;;;;;;;1.87;1.10;;;;;;;20.08;56.92;101380.03;6099367;28;20825;-64
2022/07/24 06:14:29;;;;;;;1.63;1.13;;;;;;;19.25;59.21;101381.50;6099822;28;20029;-65
2022/07/24 06:17:24;;;;;;;4.13;1.42;;;;;;;19.20;58.89;101379.38;6099557;28;20040;-64
2022/07/24 06:20:19;;;;;;;2.00;1.00;;;;;;;19.53;58.47;101366.38;6099530;28;20756;-65
2022/07/24 06:23:15;;;;;;;2.77;1.37;;;;;;;19.89;56.86;101364.53;6099486;28;20071;-64
2022/07/24 06:26:10;;;;;;;2.07;1.20;;;;;;;19.91;56.97;101372.41;6099858;28;20734;-64
2022/07/24 06:29:05;;;;;;;2.40;1.23;;;;;;;20.22;57.18;101385.59;6097000;28;20116;-64
2022/07/24 06:32:01;;;;;;;3.57;1.17;;;;;;;20.67;55.50;101374.41;6095056;28;20094;-66
2022/07/24 06:34:56;;;;;;;2.22;1.13;;;;;;;20.14;57.27;101379.28;6099163;28;20024;-65
2022/07/24 06:37:51;;;;;;;1.83;1.10;;;;;;;20.41;56.51;101374.19;6103758;28;20547;-66
2022/07/24 06:40:47;;;;;;;1.42;0.90;;;;;;;20.35;56.31;101383.03;6098216;28;20066;-65
2022/07/24 06:43:42;;;;;;;2.15;1.30;;;;;;;20.46;56.06;101360.97;6098814;28;20033;-65
2022/07/24 06:46:37;;;;;;;4.07;1.00;;;;;;;20.59;56.95;101361.06;6098462;28;20384;-65
2022/07/24 06:49:33;;;;;;;3.27;1.30;;;;;;;20.81;55.65;101361.84;6098974;28;20291;-64
2022/07/24 06:52:28;;;;;;;4.17;1.50;;;;;;;21.15;54.74;101353.78;6097963;28;20307;-65
2022/07/24 06:55:23;;;;;;;2.90;1.20;;;;;;;21.16;54.59;101364.41;6098544;28;20309;-64
2022/07/24 06:58:19;;;;;;;2.97;1.10;;;;;;;20.87;54.92;101347.59;6093239;28;20272;-66
2022/07/24 07:01:15;;;;;;;3.10;1.13;;;;;;;21.27;54.15;101353.06;6095701;28;20032;-65
2022/07/24 07:04:10;;;;;;;3.27;1.17;;;;;;;21.03;55.15;101356.22;6098458;28;20044;-64
2022/07/24 07:07:05;;;;;;;2.87;1.40;;;;;;;21.22;54.39;101350.13;6098660;28;20025;-65
2022/07/24 07:10:01;;;;;;;3.03;1.60;;;;;;;20.82;55.44;101348.16;6095601;28;20377;-64
2022/07/24 07:12:56;;;;;;;5.93;1.30;;;;;;;20.90;55.33;101337.22;6097225;28;20063;-64
2022/07/24 07:15:51;;;;;;;2.40;1.27;;;;;;;21.19;54.96;101341.59;6098721;28;20322;-66
2022/07/24 07:18:47;;;;;;;2.08;1.05;;;;;;;21.97;52.41;101332.13;6098627;28;20092;-64
2022/07/24 07:21:43;;;;;;;3.03;1.00;;;;;;;22.18;52.10;101340.03;6096868;28;20423;-65
2022/07/24 07:24:38;;;;;;;1.43;1.03;;;;;;;22.25;51.41;101328.22;6097653;28;20033;-65
2022/07/24 07:27:34;;;;;;;1.93;1.27;;;;;;;22.46;50.94;101340.69;6097879;28;20029;-66
2022/07/24 07:30:29;;;;;;;3.05;1.05;;;;;;;22.95;50.01;101337.53;6097943;28;20033;-65
2022/07/24 07:33:26;;;;;;;7.83;1.50;;;;;;;22.82;50.00;101329.44;6097770;28;20031;-66
2022/07/24 07:36:21;;;;;;;3.10;1.10;;;;;;;22.73;49.51;101326.13;6098402;28;20267;-64
2022/07/24 07:39:17;;;;;;;1.50;1.08;;;;;;;23.50;48.14;101322.59;6098024;28;20032;-64
2022/07/24 07:42:12;;;;;;;3.00;1.20;;;;;;;23.76;47.71;101337.88;6096808;28;20044;-64
2022/07/24 07:45:08;;;;;;;2.22;1.15;;;;;;;23.90;46.51;101328.63;6098408;28;20425;-65
2022/07/24 07:48:03;;;;;;;3.35;1.40;;;;;;;23.81;46.60;101327.22;6097031;28;20024;-66
2022/07/24 07:50:59;;;;;;;6.05;1.20;;;;;;;24.12;46.02;101343.50;6097382;28;20025;-64
2022/07/24 07:53:54;;;;;;;5.47;1.40;;;;;;;24.11;45.57;101329.13;6097054;28;20124;-65
2022/07/24 07:56:49;;;;;;;2.80;1.07;;;;;;;24.26;45.49;101339.66;6097736;28;20036;-65
2022/07/24 07:59:45;;;;;;;2.03;1.20;;;;;;;23.50;47.13;101333.44;6097565;28;20021;-64
2022/07/24 08:02:40;;;;;;;2.30;1.27;;;;;;;24.14;46.60;101334.13;6096857;28;20055;-65
2022/07/24 08:05:35;;;;;;;2.07;1.20;;;;;;;23.42;47.26;101342.63;6097156;28;20028;-65
2022/07/24 08:08:31;;;;;;;4.07;1.50;;;;;;;23.61;47.41;101333.59;6094522;28;20627;-64
2022/07/24 08:11:26;;;;;;;3.42;1.38;;;;;;;24.10;45.90;101323.94;6091916;28;20072;-66
2022/07/24 08:14:21;;;;;;;2.30;1.20;;;;;;;24.47;44.79;101336.56;6094635;28;20399;-65
2022/07/24 08:17:17;;;;;;;2.63;1.33;;;;;;;24.30;44.75;101321.88;6094446;28;20021;-66
2022/07/24 08:20:12;;;;;;;2.08;1.20;;;;;;;24.54;45.60;101325.66;6095641;28;20029;-65
2022/07/24 08:23:07;;;;;;;3.17;1.50;;;;;;;24.54;44.76;101320.25;6097468;28;20032;-65
2022/07/24 08:26:03;;;;;;;3.53;1.70;;;;;;;24.47;44.13;101319.47;6097069;28;20282;-65
2022/07/24 08:28:58;;;;;;;2.73;1.30;;;;;;;24.24;45.46;101325.50;6095974;28;20079;-66
2022/07/24 08:31:54;;;;;;;3.00;1.70;;;;;;;24.48;43.92;101327.38;6094807;28;20343;-65
2022/07/24 08:34:49;;;;;;;2.80;1.37;;;;;;;24.97;42.99;101314.81;6096727;28;20037;-65
2022/07/24 08:37:44;;;;;;;3.17;1.40;;;;;;;24.90;43.67;101324.91;6097011;28;20043;-66
2022/07/24 08:40:40;;;;;;;3.37;1.80;;;;;;;25.20;42.49;101313.06;6096275;28;20058;-65
2022/07/24 08:43:35;;;;;;;4.30;1.60;;;;;;;25.04;43.11;101327.25;6096366;28;20033;-65
2022/07/24 08:46:31;;;;;;;3.73;1.50;;;;;;;25.58;41.87;101312.00;6096392;28;20371;-64
2022/07/24 08:49:27;;;;;;;2.80;1.83;;;;;;;26.02;40.04;101317.00;6096145;28;20456;-66
2022/07/24 08:52:22;;;;;;;4.80;1.95;;;;;;;25.91;40.40;101323.22;6095845;28;20055;-66
2022/07/24 08:55:17;;;;;;;3.53;1.70;;;;;;;25.21;41.79;101309.31;6096089;28;20428;-66
2022/07/24 08:58:13;;;;;;;4.78;1.70;;;;;;;25.18;42.27;101312.47;6096561;28;20509;-66
2022/07/24 09:01:08;;;;;;;3.87;2.27;;;;;;;25.99;41.00;101320.19;6096047;28;20047;-66
2022/07/24 09:04:04;;;;;;;4.15;2.05;;;;;;;25.93;40.64;101302.06;6096231;28;20757;-66
2022/07/24 09:07:01;;;;;;;3.80;1.90;;;;;;;26.06;40.35;101310.06;6096271;28;20417;-65
2022/07/24 09:10:05;;;;;;;3.75;2.15;;;;;;;26.37;39.46;101319.81;6094817;28;20036;-66
2022/07/24 09:13:13;;;;;;;3.30;2.03;;;;;;;26.52;38.98;101298.44;6094581;28;20021;-66
2022/07/24 09:16:21;;;;;;;7.43;2.33;;;;;;;26.63;38.59;101315.81;6089587;28;20103;-65
2022/07/24 09:19:17;;;;;;;5.10;2.30;;;;;;;26.30;38.96;101306.34;6095734;28;20028;-64
2022/07/24 09:22:30;;;;;;;5.37;2.50;;;;;;;26.60;38.38;101312.50;6092839;28;20068;-64
2022/07/24 09:25:27;;;;;;;5.20;2.88;;;;;;;26.02;40.38;101295.25;6095984;28;20271;-65
2022/07/24 09:28:24;;;;;;;5.43;2.33;;;;;;;26.71;38.24;101302.69;6095575;28;20033;-65
2022/07/24 09:31:22;;;;;;;7.63;2.60;;;;;;;26.61;38.64;101296.97;6111911;28;20025;-65
2022/07/24 09:34:17;;;;;;;4.88;2.47;;;;;;;26.91;39.41;101294.97;6089580;28;20053;-65
2022/07/24 09:37:13;;;;;;;4.70;2.10;;;;;;;27.18;37.42;101298.84;6095339;28;20044;-65
2022/07/24 09:40:09;;;;;;;3.78;2.30;;;;;;;26.62;37.93;101298.66;6092530;28;20373;-65
2022/07/24 09:43:26;;;;;;;4.45;2.08;;;;;;;26.45;38.21;101306.69;6097768;28;20384;-65
2022/07/24 09:46:24;;;;;;;3.10;2.20;;;;;;;27.04;38.42;101294.72;6091050;28;20029;-65
2022/07/24 09:49:20;;;;;;;4.90;2.67;;;;;;;26.72;37.72;101304.31;6098860;28;20032;-64
2022/07/24 09:52:17;;;;;;;5.18;2.45;;;;;;;26.55;39.26;101292.50;6089579;28;20041;-65
2022/07/24 09:55:24;;;;;;;3.08;1.90;;;;;;;27.17;37.53;101291.75;6098916;28;20029;-65
2022/07/24 09:58:20;;;;;;;4.68;2.20;;;;;;;27.55;37.80;101287.59;6097972;28;20028;-66
2022/07/24 10:01:16;;;;;;;4.95;2.25;;;;;;;27.37;37.62;101271.44;6092070;28;20017;-65
2022/07/24 10:04:13;;;;;;;3.75;2.28;;;;;;;27.30;36.40;101266.09;6093969;28;20059;-65
2022/07/24 10:07:14;;;;;;;4.68;2.30;;;;;;;27.65;36.61;101275.00;6097821;28;20021;-66
2022/07/24 10:10:10;;;;;;;4.55;2.72;;;;;;;28.14;35.59;101270.69;6098022;28;20025;-64
2022/07/24 10:13:05;;;;;;;4.63;2.38;;;;;;;27.18;36.69;101260.69;6099543;28;20021;-64
2022/07/24 10:16:25;;;;;;;4.20;2.22;;;;;;;27.55;35.88;101265.81;6095736;28;20078;-64
2022/07/24 10:19:26;;;;;;;4.88;2.45;;;;;;;27.66;36.13;101262.19;6096954;28;20078;-66
2022/07/24 10:22:23;;;;;;;2.65;1.90;;;;;;;27.83;35.69;101260.31;6087969;28;20026;-66
2022/07/24 10:25:19;;;;;;;7.75;2.00;;;;;;;28.13;35.29;101268.22;6094404;28;20024;-66
2022/07/24 10:28:19;;;;;;;3.40;2.17;;;;;;;28.10;35.11;101263.28;6105711;28;20035;-65
2022/07/24 10:31:15;;;;;;;4.80;2.17;;;;;;;28.08;34.65;101252.59;6112041;28;20546;-66
2022/07/24 10:34:19;;;;;;;4.55;2.03;;;;;;;28.06;34.76;101246.56;6113220;28;20021;-65
2022/07/24 10:37:36;;;;;;;4.45;2.13;;;;;;;27.83;35.42;101252.13;6094742;28;20021;-66
2022/07/24 10:40:39;;;;;;;3.22;2.08;;;;;;;28.43;33.77;101241.38;6091204;28;20025;-65
2022/07/24 10:43:35;;;;;;;5.80;2.50;;;;;;;28.48;34.37;101238.75;6095361;28;20090;-65
2022/07/24 10:46:30;;;;;;;3.17;2.20;;;;;;;28.92;32.64;101236.91;6094836;28;20468;-66
2022/07/24 10:49:49;;;;;;;8.60;2.53;;;;;;;28.21;33.79;101233.16;6092947;28;20476;-65
2022/07/24 10:52:44;;;;;;;3.03;2.05;;;;;;;28.71;33.19;101240.44;6098016;28;20037;-65
2022/07/24 10:55:40;;;;;;;3.80;1.80;;;;;;;29.10;32.90;101233.88;6098928;28;20056;-65
2022/07/24 10:58:53;;;;;;;3.40;2.03;;;;;;;28.29;33.38;101227.25;6098292;28;20036;-64
2022/07/24 11:01:51;;;;;;;6.38;1.92;;;;;;;28.43;34.10;101232.41;6094914;28;20533;-65
2022/07/24 11:04:46;;;;;;;4.55;1.90;;;;;;;29.12;33.30;101212.56;6088045;28;20088;-66
2022/07/24 11:08:17;;;;;;;2.97;2.07;;;;;;;29.58;32.10;101226.72;6092844;28;20036;-66
2022/07/24 11:11:18;;;;;;;4.38;1.90;;;;;;;29.51;30.19;101222.28;6093435;28;20027;-66
2022/07/24 11:14:13;;;;;;;4.80;2.10;;;;;;;29.82;31.12;101211.66;6098076;28;20063;-66
2022/07/24 11:17:35;;;;;;;3.60;2.08;;;;;;;29.71;31.22;101215.38;6095865;28;20115;-65
2022/07/24 11:20:34;;;;;;;3.17;2.10;;;;;;;29.91;30.21;101208.19;6088246;28;20514;-66
2022/07/24 11:23:30;;;;;;;4.25;2.05;;;;;;;29.69;31.75;101212.06;6091102;28;20044;-66
2022/07/24 11:26:31;;;;;;;3.42;1.90;;;;;;;29.77;28.80;101208.84;6091356;28;20021;-65
2022/07/24 11:29:30;;;;;;;3.95;1.98;;;;;;;30.00;29.78;101203.88;6088521;28;20043;-66
2022/07/24 11:32:27;;;;;;;2.97;1.52;;;;;;;30.20;28.43;101197.72;6092519;28;20025;-67
2022/07/24 11:35:41;;;;;;;3.38;1.50;;;;;;;30.36;27.58;101202.22;6092036;28;20131;-66
2022/07/24 11:38:36;;;;;;;2.63;1.58;;;;;;;30.23;27.62;101202.69;6090828;28;20029;-67
2022/07/24 11:41:52;;;;;;;2.40;1.55;;;;;;;30.14;28.00;101204.25;6095581;28;20025;-66
2022/07/24 11:44:49;;;;;;;2.72;1.77;;;;;;;30.22;28.52;101195.56;6094400;28;20419;-66
2022/07/24 11:47:45;;;;;;;3.40;1.85;;;;;;;30.19;28.66;101184.31;6089686;28;20047;-66
2022/07/24 11:50:41;;;;;;;4.18;1.70;;;;;;;30.15;28.36;101199.59;6086880;28;20115;-65
2022/07/24 11:53:36;;;;;;;3.77;1.73;;;;;;;30.61;27.23;101183.22;6104697;28;20085;-66
2022/07/24 11:56:32;;;;;;;4.27;1.87;;;;;;;31.02;26.43;101177.91;6084037;28;20354;-65
2022/07/24 11:59:32;;;;;;;2.55;1.80;;;;;;;30.93;26.00;101171.31;6105876;28;20351;-66
2022/07/24 12:02:27;;;;;;;3.20;1.92;;;;;;;30.95;27.44;101171.88;6095925;28;20118;-67
2022/07/24 12:05:29;;;;;;;3.63;1.90;;;;;;;31.17;27.05;101175.22;6090183;28;20032;-66
2022/07/24 12:08:26;;;;;;;3.97;2.15;;;;;;;31.07;26.39;101167.78;6095849;28;20293;-65
2022/07/24 12:11:22;;;;;;;2.88;1.75;;;;;;;31.04;27.27;101170.22;6083424;28;20040;-65
2022/07/24 12:14:19;;;;;;;2.80;2.00;;;;;;;30.85;26.83;101161.66;6094778;28;20025;-66
2022/07/24 12:17:15;;;;;;;4.47;2.03;;;;;;;30.55;26.78;101147.84;6094349;28;20033;-66
2022/07/24 12:20:10;;;;;;;3.20;2.00;;;;;;;30.72;26.41;101144.91;6095483;28;20483;-67
2022/07/24 12:23:09;;;;;;;2.67;1.93;;;;;;;31.00;26.14;101137.09;6092705;28;20043;-66
2022/07/24 12:26:04;;;;;;;3.88;2.35;;;;;;;31.23;27.41;101124.75;6084741;28;20071;-66
2022/07/24 12:29:09;;;;;;;3.35;2.38;;;;;;;31.24;26.58;101130.00;6096682;28;20025;-66
2022/07/24 12:32:17;;;;;;;5.93;2.10;;;;;;;31.00;26.24;101115.16;6096113;28;20112;-66
2022/07/24 12:35:13;;;;;;;7.45;2.05;;;;;;;31.28;27.45;101102.88;6096615;28;20029;-67
2022/07/24 12:38:08;;;;;;;3.50;2.13;;;;;;;31.35;27.54;101106.13;6096382;28;20350;-66
2022/07/24 12:41:10;;;;;;;3.57;2.03;;;;;;;31.34;26.86;101112.72;6112103;28;20086;-66
2022/07/24 12:44:06;;;;;;;4.93;2.30;;;;;;;30.66;27.75;101098.31;6096727;28;20029;-65
2022/07/24 12:47:02;;;;;;;3.55;2.28;;;;;;;31.05;27.56;101101.47;6096241;28;20063;-66
2022/07/24 12:49:58;;;;;;;3.65;2.40;;;;;;;31.68;27.08;101102.88;6096709;28;20033;-66
2022/07/24 12:53:02;;;;;;;4.85;2.45;;;;;;;31.54;27.44;101104.53;6099305;28;20032;-66
2022/07/24 12:56:09;;;;;;;4.82;2.47;;;;;;;31.11;28.03;101099.53;6109399;28;20036;-66
2022/07/24 12:59:06;;;;;;;4.15;2.50;;;;;;;31.18;27.61;101108.31;6100726;28;20371;-66
2022/07/24 13:02:13;;;;;;;3.60;2.65;;;;;;;31.17;27.13;101087.50;6099937;28;20043;-66
2022/07/24 13:05:08;;;;;;;3.45;2.35;;;;;;;31.60;27.86;101086.97;6100199;28;20025;-66
2022/07/24 13:08:04;;;;;;;4.83;2.70;;;;;;;31.74;27.30;101082.53;6104465;28;20049;-65
2022/07/24 13:10:59;;;;;;;4.63;2.80;;;;;;;31.59;27.54;101079.84;6100425;28;20052;-66
2022/07/24 13:13:56;;;;;;;3.70;2.67;;;;;;;31.22;27.29;101068.31;6097857;28;20033;-66
2022/07/24 13:16:52;;;;;;;5.25;2.88;;;;;;;31.52;28.43;101057.38;6093584;28;20029;-66
2022/07/24 13:19:49;;;;;;;4.95;2.75;;;;;;;31.59;27.54;101059.81;6095737;28;20036;-66
2022/07/24 13:22:44;;;;;;;5.47;2.47;;;;;;;31.34;27.94;101049.66;6094249;28;20039;-66
2022/07/24 13:25:42;;;;;;;7.00;3.00;;;;;;;31.74;27.16;101054.31;6094318;28;20025;-66
2022/07/24 13:28:37;;;;;;;4.60;3.15;;;;;;;30.85;28.42;101045.78;6097453;28;20033;-66
2022/07/24 13:31:33;;;;;;;5.33;2.40;;;;;;;31.40;27.37;101047.72;6095338;28;20487;-65
2022/07/24 13:34:28;;;;;;;5.05;2.70;;;;;;;30.70;27.49;101037.53;6096153;28;20488;-65
2022/07/24 13:37:24;;;;;;;7.00;3.00;;;;;;;30.12;28.72;101030.47;6098217;28;20036;-66
2022/07/24 13:40:19;;;;;;;3.88;2.83;;;;;;;29.94;29.48;101039.97;6096590;28;20731;-65
2022/07/24 13:43:14;;;;;;;4.87;2.80;;;;;;;30.75;28.21;101030.13;6097368;28;20039;-65